Time;durP1;ratioP1;P1;durP2;ratioP2;P2;SDS_P1;SDS_P2;PMS_P1;PMS_P2;Temp;Humidity;BMP_temperature;BMP_pressure;BME280_temperature;BME280_humidity;BME280_pressure;Samples;Min_cycle;Max_cycle;Signal;HPM_P1;HPM_P2
2022/08/23 00:02:06;;;;;;;1.23;1.10;;;19.80;99.90;;;;;;5045725;28;20508;-88
2022/08/23 00:04:50;;;;;;;3.83;1.73;;;19.80;99.90;;;;;;5033676;28;20037;-90
2022/08/23 00:07:39;;;;;;;3.17;1.27;;;19.80;99.90;;;;;;5032397;28;20569;-86
2022/08/23 00:10:09;;;;;;;2.25;1.30;;;19.80;99.90;;;;;;5026608;28;20394;-89
2022/08/23 00:12:38;;;;;;;2.45;0.90;;;19.80;99.90;;;;;;5024000;28;20048;-87
2022/08/23 00:15:09;;;;;;;5.32;1.27;;;19.80;99.90;;;;;;5039731;28;20040;-87
2022/08/23 00:17:38;;;;;;;1.48;1.17;;;19.80;99.90;;;;;;5048431;28;20056;-85
2022/08/23 00:20:08;;;;;;;1.45;0.80;;;19.80;99.90;;;;;;5032552;28;20041;-88
2022/08/23 00:22:38;;;;;;;1.60;1.10;;;19.80;99.90;;;;;;5069840;28;20037;-88
2022/08/23 00:25:09;;;;;;;2.67;1.23;;;19.80;99.90;;;;;;5067679;28;20037;-89
2022/08/23 00:27:37;;;;;;;1.02;0.70;;;19.80;99.90;;;;;;5046223;28;20498;-86
2022/08/23 00:30:08;;;;;;;1.50;0.80;;;19.80;99.90;;;;;;5046664;28;20048;-87
2022/08/23 00:32:38;;;;;;;1.75;1.10;;;19.80;99.90;;;;;;5046694;28;20045;-88
2022/08/23 00:35:07;;;;;;;1.33;1.10;;;19.80;99.90;;;;;;5046999;28;20045;-86
2022/08/23 00:37:36;;;;;;;1.52;0.90;;;19.80;99.90;;;;;;5048896;28;20041;-86
2022/08/23 00:40:07;;;;;;;2.70;1.50;;;19.80;99.90;;;;;;5028641;28;20412;-86
2022/08/23 00:49:15;;;;;;;1.98;1.00;;;19.70;99.90;;;;;;5014734;28;20053;-88
2022/08/23 00:52:15;;;;;;;1.55;1.02;;;19.80;99.90;;;;;;5015903;28;20648;-89
2022/08/23 00:54:44;;;;;;;3.10;0.90;;;19.80;99.90;;;;;;5036238;28;20058;-89
2022/08/23 00:57:15;;;;;;;2.60;1.20;;;19.70;99.90;;;;;;5033457;28;20464;-89
2022/08/23 00:59:43;;;;;;;7.50;1.60;;;19.70;99.90;;;;;;5043053;28;20053;-88
2022/08/23 01:02:12;;;;;;;2.58;0.98;;;19.70;99.90;;;;;;5046274;28;20502;-88
2022/08/23 01:04:54;;;;;;;3.55;1.45;;;19.70;99.90;;;;;;5027903;28;20789;-88
2022/08/23 01:07:47;;;;;;;3.03;1.35;;;19.70;99.90;;;;;;5042676;28;20050;-89
2022/08/23 01:10:30;;;;;;;1.75;1.15;;;19.70;99.90;;;;;;5029017;28;20065;-87
2022/08/23 01:13:15;;;;;;;6.00;1.88;;;19.70;99.90;;;;;;5038554;28;20049;-87
2022/08/23 01:16:01;;;;;;;4.40;2.22;;;19.70;99.90;;;;;;5016815;28;20057;-87
2022/08/23 01:18:30;;;;;;;2.33;1.17;;;19.70;99.90;;;;;;5039436;28;20050;-87
2022/08/23 01:21:15;;;;;;;3.28;1.30;;;19.70;99.90;;;;;;5031091;28;20049;-86
2022/08/23 01:23:47;;;;;;;6.00;1.83;;;19.70;99.90;;;;;;5031974;28;20057;-89
2022/08/23 01:26:18;;;;;;;4.43;1.85;;;19.70;99.90;;;;;;5015158;28;20057;-89
2022/08/23 01:28:51;;;;;;;5.10;1.88;;;19.70;99.90;;;;;;5036758;28;20056;-91
2022/08/23 01:31:21;;;;;;;3.20;1.80;;;19.70;99.90;;;;;;5023358;28;20049;-89
2022/08/23 01:33:56;;;;;;;4.18;1.42;;;19.70;99.90;;;;;;5030488;28;20056;-89
2022/08/23 01:36:24;;;;;;;2.28;1.70;;;19.70;99.90;;;;;;5030070;28;20045;-87
2022/08/23 01:38:53;;;;;;;5.65;3.15;;;19.70;99.90;;;;;;5029692;28;20393;-89
2022/08/23 01:41:22;;;;;;;8.48;2.70;;;19.70;99.90;;;;;;5030652;28;20048;-87
2022/08/23 01:43:50;;;;;;;4.45;2.00;;;19.70;99.90;;;;;;5046493;28;20384;-89
2022/08/23 01:46:22;;;;;;;4.70;2.80;;;19.70;99.90;;;;;;5016981;28;20053;-88
2022/08/23 01:48:50;;;;;;;4.15;1.88;;;19.70;99.90;;;;;;4710670;28;10000157;-87
2022/08/23 01:51:19;;;;;;;9.60;2.50;;;19.70;99.90;;;;;;5066965;28;20056;-89
2022/08/23 01:53:48;;;;;;;6.82;2.03;;;19.70;99.90;;;;;;5052956;28;20049;-88
2022/08/23 01:56:19;;;;;;;6.35;2.08;;;19.70;99.90;;;;;;5072661;28;20045;-89
2022/08/23 01:59:10;;;;;;;3.72;2.35;;;19.70;99.90;;;;;;5051246;28;20086;-89
2022/08/23 02:01:52;;;;;;;6.85;2.25;;;19.70;99.90;;;;;;5032316;28;20046;-88
2022/08/23 02:04:21;;;;;;;5.25;2.25;;;19.70;99.90;;;;;;5066528;28;20368;-86
2022/08/23 02:06:49;;;;;;;5.30;2.63;;;19.70;99.90;;;;;;5030556;28;20049;-88
2022/08/23 02:09:21;;;;;;;6.43;3.45;;;19.70;99.90;;;;;;5031640;28;20053;-88
2022/08/23 02:11:54;;;;;;;8.98;4.07;;;19.70;99.90;;;;;;5053147;28;20391;-87
2022/08/23 02:14:23;;;;;;;6.20;2.85;;;19.70;99.90;;;;;;5056115;28;20542;-87
2022/08/23 02:16:57;;;;;;;7.97;3.38;;;19.70;99.90;;;;;;5051147;28;20037;-87
2022/08/23 02:19:36;;;;;;;7.20;2.47;;;19.70;99.90;;;;;;5029369;28;20060;-88
2022/08/23 02:22:06;;;;;;;9.07;3.40;;;19.70;99.90;;;;;;5031831;28;20050;-87
2022/08/23 02:24:39;;;;;;;9.10;3.15;;;19.70;99.90;;;;;;5055553;28;20053;-87
2022/08/23 02:27:08;;;;;;;13.07;3.92;;;19.70;99.90;;;;;;5032728;28;20053;-88
2022/08/23 02:29:39;;;;;;;11.02;3.97;;;19.70;99.90;;;;;;5051686;28;20048;-87
2022/08/23 02:32:13;;;;;;;10.32;4.05;;;19.60;99.90;;;;;;5036420;28;20045;-89
2022/08/23 02:34:43;;;;;;;11.35;4.72;;;19.60;99.90;;;;;;5053089;28;20044;-88
2022/08/23 02:37:19;;;;;;;10.55;4.25;;;19.60;99.90;;;;;;5053383;28;20068;-87
2022/08/23 02:39:47;;;;;;;15.63;4.25;;;19.70;99.90;;;;;;5053088;28;20056;-86
2022/08/23 02:42:16;;;;;;;10.55;4.05;;;19.70;99.90;;;;;;5053753;28;20045;-87
2022/08/23 02:44:44;;;;;;;13.00;4.50;;;19.70;99.90;;;;;;5055130;28;20059;-87
2022/08/23 02:47:12;;;;;;;12.20;5.13;;;19.70;99.90;;;;;;5037684;28;20074;-88
2022/08/23 02:49:46;;;;;;;13.13;5.10;;;19.80;99.90;;;;;;5051507;28;20052;-86
2022/08/23 02:52:14;;;;;;;13.52;4.80;;;19.70;99.90;;;;;;5037610;28;20036;-87
2022/08/23 02:54:43;;;;;;;14.23;6.20;;;19.80;99.90;;;;;;5047530;28;20038;-87
2022/08/23 02:57:10;;;;;;;11.90;5.28;;;19.80;99.90;;;;;;5061285;28;20049;-87
2022/08/23 02:59:39;;;;;;;11.85;6.00;;;19.80;99.90;;;;;;5062831;28;20055;-87
2022/08/23 03:02:07;;;;;;;12.70;5.50;;;19.80;99.90;;;;;;5046997;28;20045;-87
2022/08/23 03:04:39;;;;;;;16.63;5.85;;;19.80;99.90;;;;;;5051586;28;20045;-88
2022/08/23 03:07:07;;;;;;;14.65;6.53;;;19.80;99.90;;;;;;5053263;28;20049;-86
2022/08/23 03:09:37;;;;;;;19.20;8.25;;;19.80;99.90;;;;;;5051723;28;20040;-88
2022/08/23 03:12:05;;;;;;;14.45;6.22;;;19.80;99.90;;;;;;5053649;28;20059;-89
2022/08/23 03:14:36;;;;;;;16.42;7.13;;;19.80;99.90;;;;;;5065655;28;20049;-86
2022/08/23 03:17:06;;;;;;;16.85;6.85;;;19.80;99.90;;;;;;5051970;28;20491;-88
2022/08/23 03:19:34;;;;;;;21.38;7.85;;;19.80;99.90;;;;;;5035934;28;20049;-88
2022/08/23 03:22:06;;;;;;;22.35;10.13;;;19.80;99.90;;;;;;5032367;28;20054;-87
2022/08/23 03:24:35;;;;;;;24.30;10.80;;;19.80;99.90;;;;;;5031177;28;20488;-87
2022/08/23 03:27:05;;;;;;;19.15;7.93;;;19.80;99.90;;;;;;5045236;28;20056;-87
2022/08/23 03:29:33;;;;;;;15.73;6.70;;;19.80;99.90;;;;;;5031265;28;20060;-86
2022/08/23 03:32:04;;;;;;;16.50;6.97;;;19.80;99.90;;;;;;5052819;28;20044;-89
2022/08/23 03:34:36;;;;;;;16.50;7.68;;;19.80;99.90;;;;;;5033653;28;20045;-89
2022/08/23 03:37:07;;;;;;;18.92;7.70;;;19.80;99.90;;;;;;5047785;28;20041;-89
2022/08/23 03:39:37;;;;;;;17.58;7.75;;;19.80;99.90;;;;;;5053092;28;20048;-85
2022/08/23 03:42:05;;;;;;;15.70;8.90;;;19.80;99.90;;;;;;5064596;28;20045;-90
2022/08/23 03:44:34;;;;;;;14.55;7.50;;;19.90;99.90;;;;;;5053211;28;20049;-89
2022/08/23 03:47:05;;;;;;;19.80;7.72;;;19.90;99.90;;;;;;5022983;28;20064;-87
2022/08/23 03:49:36;;;;;;;15.73;6.32;;;19.90;99.90;;;;;;5050038;28;20053;-89
2022/08/23 03:52:05;;;;;;;16.45;7.85;;;19.90;99.90;;;;;;5035724;28;20049;-89
2022/08/23 03:54:34;;;;;;;17.23;8.33;;;19.90;99.90;;;;;;5053227;28;20056;-89
2022/08/23 03:57:06;;;;;;;15.23;7.30;;;19.90;99.90;;;;;;5044688;28;20059;-89
2022/08/23 03:59:37;;;;;;;18.60;7.80;;;20.00;99.90;;;;;;5061124;28;20044;-89
2022/08/23 04:02:09;;;;;;;14.63;7.93;;;20.00;99.90;;;;;;5053378;28;20049;-87
2022/08/23 04:04:38;;;;;;;19.55;7.32;;;20.00;99.90;;;;;;5053684;28;20045;-87
2022/08/23 04:07:32;;;;;;;14.63;6.65;;;20.00;99.90;;;;;;5020510;28;20049;-89
2022/08/23 04:10:00;;;;;;;21.58;6.30;;;20.00;99.90;;;;;;5051718;28;20040;-89
2022/08/23 04:12:34;;;;;;;15.80;7.15;;;20.10;99.90;;;;;;5040266;28;20538;-88
2022/08/23 04:15:04;;;;;;;16.63;6.63;;;20.10;99.90;;;;;;5057956;28;20029;-90
2022/08/23 04:17:36;;;;;;;17.55;6.60;;;20.00;99.90;;;;;;5057694;28;20064;-88
2022/08/23 04:20:06;;;;;;;24.17;8.60;;;20.00;99.90;;;;;;5057601;28;20040;-90
2022/08/23 04:22:39;;;;;;;18.25;7.88;;;20.00;99.90;;;;;;5058261;28;20055;-88
2022/08/23 04:25:07;;;;;;;14.85;6.60;;;20.00;99.90;;;;;;5060825;28;20052;-89
2022/08/23 04:27:55;;;;;;;9.88;5.25;;;20.00;99.90;;;;;;5057567;28;20045;-89
2022/08/23 04:30:24;;;;;;;10.63;5.45;;;20.00;99.90;;;;;;5040775;28;20384;-89
2022/08/23 04:32:52;;;;;;;12.90;5.30;;;20.00;99.90;;;;;;5056193;28;20419;-89
2022/08/23 04:35:22;;;;;;;11.75;5.20;;;20.00;99.90;;;;;;5042880;28;20060;-88
2022/08/23 04:37:51;;;;;;;11.88;5.18;;;20.00;99.90;;;;;;5038695;28;20056;-88
2022/08/23 04:43:07;;;;;;;9.90;5.35;;;20.00;99.90;;;;;;5057452;28;20044;-89
2022/08/23 04:45:40;;;;;;;9.70;5.22;;;20.00;99.90;;;;;;5059809;28;20040;-88
2022/08/23 04:48:14;;;;;;;9.65;4.25;;;20.00;99.90;;;;;;5060678;28;20419;-88
2022/08/23 04:50:47;;;;;;;10.63;4.93;;;20.00;99.90;;;;;;5079593;28;20057;-90
2022/08/23 04:53:18;;;;;;;10.95;4.40;;;20.00;99.90;;;;;;5068627;28;20040;-89
2022/08/23 04:55:55;;;;;;;8.38;4.25;;;20.00;99.90;;;;;;5060183;28;20503;-89
2022/08/23 04:58:29;;;;;;;11.30;4.88;;;20.00;99.90;;;;;;5069373;28;20049;-89
2022/08/23 05:00:59;;;;;;;15.63;7.22;;;20.10;99.90;;;;;;5035912;28;20501;-88
2022/08/23 05:03:28;;;;;;;10.30;5.43;;;20.00;99.90;;;;;;5049525;28;20053;-88
2022/08/23 05:06:00;;;;;;;13.73;6.28;;;20.00;99.90;;;;;;5052157;28;20052;-86
2022/08/23 05:08:35;;;;;;;15.82;7.68;;;20.00;99.90;;;;;;5052833;28;20048;-88
2022/08/23 05:11:09;;;;;;;16.63;9.18;;;20.00;99.90;;;;;;5052992;28;20036;-89
2022/08/23 05:13:39;;;;;;;14.13;8.60;;;20.00;99.90;;;;;;5036749;28;20053;-86
2022/08/23 05:16:09;;;;;;;14.25;7.00;;;20.00;99.90;;;;;;5053710;28;20041;-88
2022/08/23 05:18:43;;;;;;;18.48;8.25;;;20.00;99.90;;;;;;5052154;28;20508;-89
2022/08/23 05:21:16;;;;;;;15.38;7.60;;;19.90;99.90;;;;;;5051409;28;20045;-88
2022/08/23 05:23:45;;;;;;;17.80;7.45;;;19.90;99.90;;;;;;5051972;28;20052;-89
2022/08/23 05:26:24;;;;;;;16.05;7.93;;;19.90;99.90;;;;;;5031099;28;20550;-89
2022/08/23 05:28:52;;;;;;;19.08;7.68;;;19.90;99.90;;;;;;5018464;28;20504;-86
2022/08/23 05:31:29;;;;;;;13.80;6.32;;;19.90;99.90;;;;;;5037203;28;20045;-86
2022/08/23 05:34:01;;;;;;;16.90;10.18;;;19.90;99.90;;;;;;5054809;28;20659;-86
2022/08/23 05:36:39;;;;;;;14.73;7.60;;;19.90;99.90;;;;;;5054080;28;20049;-87
2022/08/23 05:39:22;;;;;;;11.70;6.50;;;19.80;99.90;;;;;;5043477;28;20045;-86
2022/08/23 05:42:03;;;;;;;10.85;6.07;;;19.90;99.90;;;;;;5053589;28;20060;-86
2022/08/23 05:44:31;;;;;;;11.45;5.15;;;19.90;99.90;;;;;;5034602;28;20499;-85
2022/08/23 05:47:08;;;;;;;10.40;6.72;;;19.90;99.90;;;;;;5049158;28;20053;-88
2022/08/23 05:49:49;;;;;;;13.57;5.30;;;19.90;99.90;;;;;;5052336;28;20049;-87
2022/08/23 05:52:18;;;;;;;9.77;4.88;;;19.90;99.90;;;;;;5038202;28;20062;-88
2022/08/23 05:54:45;;;;;;;10.45;4.32;;;19.90;99.90;;;;;;5052990;28;20045;-88
2022/08/23 05:57:39;;;;;;;8.55;4.70;;;19.90;99.90;;;;;;5051872;28;20080;-88
2022/08/23 06:00:13;;;;;;;11.15;4.60;;;19.90;99.90;;;;;;5051574;28;20052;-88
2022/08/23 06:02:58;;;;;;;7.47;4.32;;;19.90;99.90;;;;;;5052013;28;20036;-88
2022/08/23 06:05:29;;;;;;;8.98;4.30;;;20.00;99.90;;;;;;5055728;28;20488;-87
2022/08/23 06:08:03;;;;;;;13.98;5.35;;;20.00;99.90;;;;;;5053850;28;20041;-89
2022/08/23 06:10:35;;;;;;;7.97;4.27;;;20.00;99.90;;;;;;5021998;28;20056;-86
2022/08/23 06:13:42;;;;;;;8.30;4.78;;;20.00;99.90;;;;;;5062464;28;20508;-89
2022/08/23 06:16:12;;;;;;;8.30;4.10;;;20.00;99.90;;;;;;5051302;28;20072;-90
2022/08/23 06:18:44;;;;;;;11.00;5.63;;;20.00;99.90;;;;;;5033142;28;20056;-88
2022/08/23 06:21:38;;;;;;;11.48;5.30;;;20.00;99.90;;;;;;5041680;28;20603;-89
2022/08/23 06:24:06;;;;;;;9.68;4.18;;;20.00;99.90;;;;;;5050964;28;20495;-89
2022/08/23 06:26:44;;;;;;;7.97;3.65;;;20.00;99.90;;;;;;5055591;28;20041;-88
2022/08/23 06:29:15;;;;;;;13.70;5.35;;;20.10;99.90;;;;;;5055818;28;20057;-89
2022/08/23 06:31:50;;;;;;;11.65;4.93;;;20.10;99.90;;;;;;5059170;28;20056;-89
2022/08/23 06:34:36;;;;;;;10.15;5.85;;;20.10;99.90;;;;;;5046190;28;20050;-88
2022/08/23 06:37:26;;;;;;;12.32;6.65;;;20.00;99.90;;;;;;5034763;28;20037;-88
2022/08/23 06:40:05;;;;;;;13.88;6.55;;;20.10;99.90;;;;;;5040882;28;20064;-88
2022/08/23 06:42:46;;;;;;;14.52;6.28;;;20.10;99.90;;;;;;5043635;28;20048;-89
2022/08/23 06:45:27;;;;;;;14.73;7.43;;;20.10;99.90;;;;;;5059663;28;20045;-89
2022/08/23 06:48:06;;;;;;;15.38;7.18;;;20.20;99.90;;;;;;5046940;28;20667;-89
2022/08/23 06:50:35;;;;;;;16.27;8.10;;;20.20;99.90;;;;;;5036588;28;20048;-86
2022/08/23 06:53:22;;;;;;;14.60;6.05;;;20.20;99.90;;;;;;5052705;28;20772;-85
2022/08/23 06:56:08;;;;;;;20.42;7.63;;;20.20;99.90;;;;;;5051269;28;20491;-87
2022/08/23 06:58:47;;;;;;;18.10;7.30;;;20.20;99.90;;;;;;5047470;28;20041;-85
2022/08/23 07:01:39;;;;;;;18.33;7.87;;;20.30;99.90;;;;;;5046956;28;20770;-86
2022/08/23 07:04:40;;;;;;;15.65;7.97;;;20.30;99.90;;;;;;5042261;28;20293;-86
2022/08/23 07:07:22;;;;;;;14.32;7.43;;;20.30;99.90;;;;;;5044690;28;20048;-85
2022/08/23 07:10:04;;;;;;;21.85;7.85;;;20.40;99.90;;;;;;5038135;28;20060;-87
2022/08/23 07:12:32;;;;;;;15.23;7.65;;;20.50;99.90;;;;;;5050371;28;20041;-85
2022/08/23 07:15:00;;;;;;;13.23;7.00;;;20.50;99.90;;;;;;5052894;28;20041;-86
2022/08/23 07:17:28;;;;;;;11.50;6.28;;;20.60;99.90;;;;;;5050597;28;20065;-86
2022/08/23 07:19:56;;;;;;;16.92;7.40;;;20.80;99.90;;;;;;5047780;28;20033;-85
2022/08/23 07:22:24;;;;;;;14.93;6.35;;;20.90;99.90;;;;;;5029593;28;20067;-86
2022/08/23 07:24:52;;;;;;;14.07;8.15;;;21.00;99.90;;;;;;5029619;28;20048;-85
2022/08/23 07:27:22;;;;;;;10.93;6.60;;;21.00;99.90;;;;;;5047756;28;20052;-85
2022/08/23 07:30:10;;;;;;;13.73;7.45;;;21.10;99.90;;;;;;5046593;28;20080;-87
2022/08/23 07:32:39;;;;;;;18.45;8.55;;;21.10;99.90;;;;;;5045334;28;20052;-86
2022/08/23 07:35:36;;;;;;;14.02;6.68;;;21.10;99.90;;;;;;5045924;28;20059;-86
2022/08/23 07:38:07;;;;;;;15.43;8.25;;;21.20;99.90;;;;;;5029217;28;20048;-85
2022/08/23 07:40:35;;;;;;;14.43;7.72;;;21.20;99.90;;;;;;5012526;28;20048;-85
2022/08/23 07:43:08;;;;;;;17.40;8.00;;;21.20;99.90;;;;;;5025608;28;20500;-86
2022/08/23 07:45:39;;;;;;;17.50;8.50;;;21.30;99.90;;;;;;5042167;28;20053;-85
2022/08/23 07:48:10;;;;;;;16.80;7.43;;;21.30;99.90;;;;;;5047845;28;20056;-87
2022/08/23 07:51:11;;;;;;;15.38;8.57;;;21.40;99.90;;;;;;5028959;28;20398;-86
2022/08/23 07:53:39;;;;;;;15.00;8.35;;;21.60;99.90;;;;;;5026292;28;20050;-87
2022/08/23 07:56:15;;;;;;;12.35;5.78;;;21.70;99.90;;;;;;5045931;28;20060;-86
2022/08/23 07:59:06;;;;;;;14.30;6.75;;;21.80;99.90;;;;;;5044858;28;20052;-86
2022/08/23 08:01:48;;;;;;;16.50;6.75;;;21.90;99.90;;;;;;5040963;28;20492;-86
2022/08/23 08:04:17;;;;;;;9.60;5.88;;;22.00;99.90;;;;;;5043449;28;20037;-85
2022/08/23 08:06:49;;;;;;;11.05;6.10;;;22.10;99.90;;;;;;5046785;28;20052;-86
2022/08/23 08:09:39;;;;;;;12.65;6.35;;;22.10;99.90;;;;;;5048495;28;20041;-88
2022/08/23 08:12:09;;;;;;;8.32;3.88;;;22.10;99.90;;;;;;5030320;28;20049;-87
2022/08/23 08:14:41;;;;;;;10.85;4.32;;;22.20;99.90;;;;;;5042500;28;20045;-85
2022/08/23 08:17:41;;;;;;;13.10;5.43;;;22.20;99.90;;;;;;5029240;28;20059;-87
2022/08/23 08:20:14;;;;;;;10.32;4.85;;;22.10;99.90;;;;;;5042711;28;20041;-88
2022/08/23 08:23:03;;;;;;;14.60;5.53;;;22.30;99.90;;;;;;5043006;28;20053;-88
2022/08/23 08:26:08;;;;;;;11.25;4.93;;;22.20;99.90;;;;;;5044274;28;20045;-87
2022/08/23 08:28:37;;;;;;;12.77;4.60;;;22.20;99.90;;;;;;5028224;28;20045;-87
2022/08/23 08:31:06;;;;;;;14.18;3.50;;;22.20;99.90;;;;;;5026043;28;20067;-87
2022/08/23 08:33:34;;;;;;;17.98;5.38;;;22.20;99.90;;;;;;5025961;28;20057;-87
2022/08/23 08:36:05;;;;;;;9.48;3.58;;;22.30;99.90;;;;;;5029442;28;20045;-87
2022/08/23 08:38:39;;;;;;;6.38;3.35;;;22.40;99.90;;;;;;4668909;28;9999648;-88
2022/08/23 08:41:51;;;;;;;15.85;2.58;;;22.50;99.90;;;;;;5040117;28;20189;-86
2022/08/23 08:44:46;;;;;;;9.00;3.88;;;22.50;99.90;;;;;;5030134;28;20053;-85
2022/08/23 08:47:23;;;;;;;11.50;3.03;;;22.50;99.90;;;;;;5041827;28;20049;-88
2022/08/23 08:50:01;;;;;;;7.20;2.80;;;22.60;99.90;;;;;;5023778;28;20063;-87
2022/08/23 08:52:39;;;;;;;6.90;3.83;;;22.60;99.90;;;;;;5056645;28;20599;-86
2022/08/23 08:55:39;;;;;;;8.75;3.45;;;22.50;99.90;;;;;;5056555;28;20186;-85
2022/08/23 08:58:16;;;;;;;8.15;3.35;;;22.50;99.90;;;;;;5039666;28;20531;-85
2022/08/23 09:00:46;;;;;;;8.05;3.03;;;22.40;99.90;;;;;;5038341;28;20060;-85
2022/08/23 09:03:20;;;;;;;14.27;2.53;;;22.40;99.90;;;;;;5054221;28;20403;-85
2022/08/23 09:05:58;;;;;;;24.42;3.17;;;22.40;99.90;;;;;;5044171;28;20044;-85
2022/08/23 09:08:44;;;;;;;9.32;2.85;;;22.50;99.90;;;;;;5026671;28;20060;-85
2022/08/23 09:11:19;;;;;;;5.38;2.78;;;22.50;99.90;;;;;;5043535;28;20045;-84
2022/08/23 09:14:11;;;;;;;3.42;2.17;;;22.50;99.90;;;;;;5041331;28;20060;-84
2022/08/23 09:17:05;;;;;;;6.00;2.58;;;22.60;99.90;;;;;;5043118;28;20072;-85
2022/08/23 09:19:36;;;;;;;6.05;3.60;;;22.70;99.90;;;;;;5044071;28;20064;-86
2022/08/23 09:22:12;;;;;;;4.38;2.65;;;22.70;99.90;;;;;;5059824;28;20040;-86
2022/08/23 09:24:40;;;;;;;6.95;3.50;;;22.80;99.90;;;;;;5044322;28;20045;-86
2022/08/23 09:27:14;;;;;;;7.25;2.90;;;22.90;99.90;;;;;;5045858;28;20068;-85
2022/08/23 09:29:55;;;;;;;9.98;3.22;;;22.90;99.50;;;;;;5044344;28;20140;-85
2022/08/23 09:32:35;;;;;;;8.18;3.22;;;23.00;99.40;;;;;;5057618;28;20441;-88
2022/08/23 09:35:12;;;;;;;8.85;2.88;;;22.90;99.50;;;;;;5043989;28;20052;-87
2022/08/23 09:38:14;;;;;;;10.02;3.20;;;23.00;99.60;;;;;;5046127;28;20631;-86
2022/08/23 09:40:48;;;;;;;7.50;4.32;;;23.00;99.30;;;;;;5042435;28;20049;-87
2022/08/23 09:43:22;;;;;;;4.80;2.50;;;23.10;99.50;;;;;;5045149;28;20045;-87
2022/08/23 09:45:50;;;;;;;11.27;3.97;;;23.20;99.60;;;;;;5059015;28;20029;-84
2022/08/23 09:48:41;;;;;;;6.60;2.65;;;23.30;99.60;;;;;;5041695;28;20382;-90
2022/08/23 09:51:33;;;;;;;13.80;4.90;;;23.50;98.80;;;;;;5027419;28;20046;-86
2022/08/23 09:54:08;;;;;;;5.53;2.63;;;23.60;98.90;;;;;;5039316;28;20049;-88
2022/08/23 09:56:44;;;;;;;10.32;3.17;;;23.70;99.00;;;;;;5026501;28;20399;-90
2022/08/23 09:59:25;;;;;;;8.77;3.00;;;23.80;98.80;;;;;;5052017;28;21493;-90
2022/08/23 10:02:00;;;;;;;5.35;2.03;;;23.80;98.10;;;;;;5052604;28;20045;-90
2022/08/23 10:04:46;;;;;;;5.93;2.50;;;23.90;98.20;;;;;;5040535;28;20072;-91
2022/08/23 10:07:37;;;;;;;7.13;2.40;;;24.00;98.10;;;;;;5050377;28;20076;-90
2022/08/23 10:10:23;;;;;;;4.68;1.80;;;24.00;97.40;;;;;;5033191;28;20064;-91
2022/08/23 10:12:55;;;;;;;6.20;2.00;;;24.10;97.90;;;;;;5049787;28;20068;-89
2022/08/23 10:15:48;;;;;;;5.22;2.03;;;24.30;97.30;;;;;;5020322;28;20049;-90
2022/08/23 10:18:43;;;;;;;4.65;2.13;;;24.40;97.20;;;;;;5036599;28;20049;-90
2022/08/23 10:21:22;;;;;;;5.97;1.73;;;24.40;97.50;;;;;;5000733;28;20091;-88
2022/08/23 10:24:15;;;;;;;4.57;2.33;;;24.50;97.10;;;;;;5040290;28;20045;-90
2022/08/23 10:30:31;;;;;;;4.10;2.25;;;24.60;96.60;;;;;;5039983;28;20049;-88
2022/08/23 10:33:18;;;;;;;3.88;2.33;;;24.70;97.20;;;;;;5024278;28;20045;-87
2022/08/23 10:36:22;;;;;;;4.95;1.65;;;24.80;96.90;;;;;;5027635;28;20388;-91
2022/08/23 10:39:05;;;;;;;8.32;2.42;;;24.70;96.20;;;;;;5054182;28;20033;-88
2022/08/23 10:41:48;;;;;;;5.60;1.60;;;24.70;96.60;;;;;;5050232;28;20048;-89
2022/08/23 10:44:24;;;;;;;3.33;1.55;;;24.80;96.40;;;;;;5042410;28;20052;-89
2022/08/23 10:47:20;;;;;;;3.33;1.40;;;24.90;96.40;;;;;;5046025;28;20057;-87
2022/08/23 10:49:51;;;;;;;6.13;1.65;;;25.10;96.30;;;;;;5042644;28;20053;-88
2022/08/23 10:52:35;;;;;;;5.70;1.65;;;25.30;96.30;;;;;;5041777;28;20152;-88
2022/08/23 10:55:16;;;;;;;4.18;1.58;;;25.40;95.60;;;;;;5044043;28;20055;-88
2022/08/23 10:57:46;;;;;;;6.60;1.27;;;25.40;95.40;;;;;;5026027;28;20056;-88
2022/08/23 11:00:24;;;;;;;5.45;1.38;;;25.50;95.50;;;;;;5027132;28;20041;-90
2022/08/23 11:03:01;;;;;;;2.35;1.40;;;25.70;95.40;;;;;;5016583;28;20064;-89
2022/08/23 11:05:35;;;;;;;4.13;1.45;;;25.90;95.00;;;;;;5032682;28;20060;-86
2022/08/23 11:08:33;;;;;;;3.63;1.30;;;25.90;94.70;;;;;;5024220;28;20053;-87
2022/08/23 11:11:24;;;;;;;6.43;1.50;;;25.90;94.50;;;;;;5020891;28;20056;-88
2022/08/23 11:13:52;;;;;;;6.55;1.10;;;26.00;94.70;;;;;;5022929;28;20080;-89
2022/08/23 11:16:29;;;;;;;3.47;1.30;;;26.10;94.60;;;;;;5013933;28;20060;-89
2022/08/23 11:18:58;;;;;;;9.85;1.60;;;26.10;94.50;;;;;;5026597;28;20069;-90
2022/08/23 11:21:38;;;;;;;2.72;1.10;;;26.10;94.50;;;;;;5022073;28;20041;-90
2022/08/23 11:24:11;;;;;;;2.85;1.17;;;26.20;94.60;;;;;;5010492;28;20053;-89
2022/08/23 11:26:43;;;;;;;;;;;26.20;94.40;;;;;;5042448;28;20400;-90
2022/08/23 11:29:21;;;;;;;4.95;2.15;;;26.30;94.00;;;;;;5048519;28;19929;-89
2022/08/23 11:32:31;;;;;;;2.40;1.35;;;26.40;94.10;;;;;;5036495;28;20262;-90
2022/08/23 11:35:04;;;;;;;1.27;1.10;;;26.40;94.20;;;;;;5028559;28;20049;-88
2022/08/23 11:37:53;;;;;;;2.72;1.00;;;26.50;94.00;;;;;;5046944;28;20037;-89
2022/08/23 11:40:49;;;;;;;1.13;0.98;;;26.60;93.60;;;;;;5040719;28;20044;-89
2022/08/23 11:43:33;;;;;;;4.68;1.65;;;26.80;93.50;;;;;;5025060;28;20400;-89
2022/08/23 11:46:25;;;;;;;1.10;0.73;;;26.90;93.30;;;;;;5025856;28;20045;-88
2022/08/23 11:49:24;;;;;;;3.00;1.10;;;26.80;92.90;;;;;;5040531;28;20053;-90
2022/08/23 11:52:29;;;;;;;1.88;0.85;;;26.80;93.10;;;;;;5029279;28;20053;-90
2022/08/23 11:55:22;;;;;;;2.67;0.85;;;26.80;93.10;;;;;;5041870;28;20053;-89
2022/08/23 11:58:18;;;;;;;1.17;0.75;;;27.00;93.10;;;;;;5021815;28;20615;-88
2022/08/23 12:01:06;;;;;;;0.98;0.82;;;27.10;92.80;;;;;;5023226;28;20037;-88
2022/08/23 12:03:50;;;;;;;3.47;0.85;;;27.00;92.70;;;;;;5022356;28;20041;-87
2022/08/23 12:06:21;;;;;;;1.30;0.80;;;27.00;92.90;;;;;;5024742;28;20564;-89
2022/08/23 12:09:00;;;;;;;3.58;0.77;;;26.90;93.00;;;;;;5026005;28;20059;-87
2022/08/23 12:11:56;;;;;;;1.65;1.10;;;26.80;93.10;;;;;;5040777;28;20504;-89
2022/08/23 12:14:34;;;;;;;3.40;1.10;;;26.80;92.90;;;;;;5027716;28;20053;-89
2022/08/23 12:17:12;;;;;;;3.90;1.60;;;26.50;93.10;;;;;;5036862;28;20519;-91
2022/08/23 12:19:55;;;;;;;3.58;1.73;;;26.40;93.40;;;;;;5043536;28;20048;-88
2022/08/23 12:22:29;;;;;;;2.20;1.02;;;26.30;93.60;;;;;;5043462;28;20056;-89
2022/08/23 12:24:59;;;;;;;5.05;1.75;;;26.20;93.70;;;;;;5042015;28;20041;-89
2022/08/23 12:27:32;;;;;;;7.53;2.58;;;26.10;93.90;;;;;;5042914;28;20045;-88
2022/08/23 12:30:34;;;;;;;4.32;2.35;;;26.00;94.10;;;;;;5048226;28;20045;-88
2022/08/23 12:33:25;;;;;;;1.30;0.82;;;25.90;94.30;;;;;;5055493;28;20060;-87
2022/08/23 12:36:22;;;;;;;1.42;1.00;;;25.90;94.50;;;;;;5054413;28;20053;-88
2022/08/23 12:39:07;;;;;;;2.95;1.42;;;25.90;94.80;;;;;;5046166;28;20063;-87
2022/08/23 12:41:57;;;;;;;3.03;1.20;;;26.00;94.70;;;;;;5029623;28;20071;-88
2022/08/23 12:44:28;;;;;;;2.30;1.17;;;26.20;94.60;;;;;;5060821;28;20045;-87
2022/08/23 12:46:56;;;;;;;2.23;0.60;;;26.40;94.40;;;;;;5033553;28;20056;-87
2022/08/23 12:49:32;;;;;;;3.10;1.00;;;26.30;94.40;;;;;;5031635;28;20802;-87
2022/08/23 12:52:07;;;;;;;4.13;0.90;;;26.40;94.50;;;;;;5020479;28;20064;-88
2022/08/23 12:54:48;;;;;;;1.15;0.70;;;26.50;94.50;;;;;;5064874;28;20041;-88
2022/08/23 12:57:20;;;;;;;2.08;0.50;;;26.40;94.40;;;;;;5018593;28;20053;-92
2022/08/23 13:00:06;;;;;;;1.13;0.90;;;26.30;94.50;;;;;;5052375;28;20060;-87
2022/08/23 13:03:07;;;;;;;0.57;0.57;;;26.20;94.70;;;;;;5034444;28;20057;-88
2022/08/23 13:05:53;;;;;;;1.38;0.52;;;26.20;94.90;;;;;;5047941;28;20072;-88
2022/08/23 13:08:45;;;;;;;4.97;0.93;;;26.10;94.90;;;;;;5036349;28;20239;-88
2022/08/23 13:11:16;;;;;;;0.40;0.40;;;26.20;95.10;;;;;;5051186;28;20059;-88
2022/08/23 13:13:44;;;;;;;3.95;0.73;;;26.40;94.80;;;;;;5050994;28;20531;-88
2022/08/23 13:16:49;;;;;;;1.70;0.73;;;26.60;94.80;;;;;;5058318;28;20064;-88
2022/08/23 13:19:26;;;;;;;2.03;0.68;;;26.90;94.30;;;;;;5043721;28;20488;-90
2022/08/23 13:22:18;;;;;;;2.92;0.60;;;27.10;94.00;;;;;;5038929;28;20230;-89
2022/08/23 13:24:49;;;;;;;0.70;0.40;;;27.20;93.90;;;;;;5056252;28;20048;-89
2022/08/23 13:27:59;;;;;;;3.85;0.70;;;27.20;93.70;;;;;;5051866;28;20048;-89
2022/08/23 13:30:31;;;;;;;0.90;0.30;;;27.20;93.80;;;;;;5026721;28;20044;-89
2022/08/23 13:33:04;;;;;;;3.75;0.50;;;27.20;94.10;;;;;;5034686;28;20625;-90
2022/08/23 13:35:37;;;;;;;0.60;0.30;;;27.40;94.00;;;;;;5040666;28;20044;-89
2022/08/23 13:38:13;;;;;;;1.40;0.50;;;27.50;93.50;;;;;;5053429;28;20053;-89
2022/08/23 13:41:03;;;;;;;5.88;0.95;;;27.50;93.70;;;;;;5055666;28;20052;-89
2022/08/23 13:43:43;;;;;;;0.35;0.20;;;27.60;93.40;;;;;;5051489;28;20077;-90
2022/08/23 13:46:22;;;;;;;0.25;0.22;;;27.70;93.30;;;;;;5051743;28;20053;-89
2022/08/23 13:48:57;;;;;;;2.35;0.52;;;27.60;93.50;;;;;;5051187;28;20063;-90